createdAt,value
2019-05-11T00:03:48.550Z,14.37
2019-05-11T00:08:52.062Z,15.10
2019-05-11T00:13:54.141Z,13.17
2019-05-11T00:18:56.357Z,15.77
2019-05-11T00:23:58.647Z,16.20
2019-05-11T00:29:00.751Z,18.47
2019-05-11T00:34:03.021Z,17.33
2019-05-11T00:39:06.441Z,18.03
2019-05-11T00:44:08.739Z,17.87
2019-05-11T00:49:10.763Z,18.43
2019-05-11T00:54:14.728Z,14.23
2019-05-11T00:59:21.702Z,15.30
2019-05-11T01:04:20.816Z,15.97
2019-05-11T01:09:23.013Z,19.43
2019-05-11T01:14:25.308Z,17.63
2019-05-11T01:19:27.392Z,19.10
2019-05-11T01:24:29.534Z,21.23
2019-05-11T01:29:31.563Z,14.57
2019-05-11T01:34:33.739Z,18.80
2019-05-11T01:39:36.289Z,18.97
2019-05-11T01:44:38.332Z,18.57
2019-05-11T01:49:40.370Z,18.53
2019-05-11T01:54:42.358Z,22.03
2019-05-11T01:59:44.498Z,20.70
2019-05-11T02:04:50.751Z,20.30
2019-05-11T02:09:52.977Z,17.67
2019-05-11T02:14:55.001Z,19.33
2019-05-11T02:19:57.117Z,22.23
2019-05-11T02:24:59.237Z,19.60
2019-05-11T02:30:01.649Z,21.90
2019-05-11T02:35:04.081Z,19.87
2019-05-11T02:40:08.719Z,24.03
2019-05-11T02:45:11.548Z,23.53
2019-05-11T02:50:13.873Z,20.80
2019-05-11T02:55:16.107Z,23.43
2019-05-11T03:00:23.032Z,22.23
2019-05-11T03:05:25.075Z,23.47
2019-05-11T03:10:27.180Z,22.27
2019-05-11T03:15:29.391Z,20.83
2019-05-11T03:20:31.532Z,19.83
2019-05-11T03:25:33.716Z,19.37
2019-05-11T03:30:35.918Z,17.53
2019-05-11T03:35:37.938Z,19.77
2019-05-11T03:40:40.359Z,21.50
2019-05-11T03:45:42.467Z,22.00
2019-05-11T03:50:44.569Z,23.50
2019-05-11T03:55:46.669Z,27.27
2019-05-11T04:00:48.749Z,22.67
2019-05-11T04:05:50.991Z,24.40
2019-05-11T04:10:53.122Z,22.80
2019-05-11T04:15:55.091Z,23.60
2019-05-11T04:20:58.473Z,21.73
2019-05-11T04:26:00.547Z,21.30
2019-05-11T04:31:02.659Z,22.40
2019-05-11T04:36:04.698Z,25.67
2019-05-11T04:41:06.981Z,23.27
2019-05-11T04:46:10.751Z,27.67
2019-05-11T04:51:14.028Z,22.97
2019-05-11T04:56:16.273Z,19.47
2019-05-11T05:01:18.278Z,21.03
2019-05-11T05:06:23.975Z,19.60
2019-05-11T05:11:24.456Z,20.47
2019-05-11T05:16:26.446Z,18.53
2019-05-11T05:21:28.436Z,19.53
2019-05-11T05:26:30.581Z,18.27
2019-05-11T05:31:32.688Z,15.53
2019-05-11T05:36:34.717Z,18.40
2019-05-11T05:41:36.901Z,13.87
2019-05-11T05:46:39.116Z,17.87
2019-05-11T05:51:41.223Z,19.20
2019-05-11T05:56:43.395Z,17.23
2019-05-11T06:01:45.366Z,17.63
2019-05-11T06:06:47.395Z,18.23
2019-05-11T06:11:49.408Z,21.67
2019-05-11T06:16:51.970Z,18.17
2019-05-11T06:21:54.158Z,15.97
2019-05-11T06:26:56.211Z,20.23
2019-05-11T06:31:58.327Z,15.97
2019-05-11T06:37:00.527Z,15.80
2019-05-11T06:42:04.557Z,14.83
2019-05-11T06:47:06.760Z,15.57
2019-05-11T06:52:08.858Z,13.70
2019-05-11T06:57:10.895Z,17.30
2019-05-11T07:02:12.988Z,16.73
2019-05-11T07:07:15.252Z,19.40
2019-05-11T07:12:17.636Z,15.47
2019-05-11T07:17:19.695Z,20.47
2019-05-11T07:22:21.670Z,17.37
2019-05-11T07:27:23.761Z,21.90
2019-05-11T07:32:26.286Z,34.97
2019-05-11T07:37:29.320Z,19.83
2019-05-11T07:48:27.835Z,13.03
2019-05-11T07:53:30.014Z,18.20
2019-05-11T07:58:31.993Z,16.77
2019-05-11T08:03:34.078Z,12.43
2019-05-11T08:08:38.499Z,12.10
2019-05-11T08:13:40.171Z,16.80
2019-05-11T08:18:42.391Z,18.87
2019-05-11T08:23:44.413Z,15.83
2019-05-11T08:28:48.645Z,16.97
2019-05-11T08:33:50.453Z,20.10
2019-05-11T08:38:52.598Z,13.07
2019-05-11T08:43:58.015Z,14.13
2019-05-11T08:49:00.008Z,13.77
2019-05-11T08:54:02.132Z,13.20
2019-05-11T08:59:08.174Z,12.10
2019-05-11T09:04:10.543Z,12.53
2019-05-11T09:09:25.820Z,12.73
2019-05-11T09:14:28.532Z,10.83
2019-05-11T09:19:30.781Z,14.43
2019-05-11T09:24:32.896Z,13.70
2019-05-11T09:29:35.015Z,13.80
2019-05-11T09:34:37.823Z,15.07
2019-05-11T09:39:40.264Z,15.87
2019-05-11T09:44:44.440Z,14.47
2019-05-11T09:49:50.111Z,15.90
2019-05-11T09:54:50.558Z,14.27
2019-05-11T09:59:53.648Z,13.80
2019-05-11T10:04:57.833Z,13.33
2019-05-11T10:10:00.769Z,15.20
2019-05-11T10:15:03.386Z,14.87
2019-05-11T10:20:09.311Z,12.47
2019-05-11T10:25:11.287Z,13.83
2019-05-11T10:30:15.324Z,12.83
2019-05-11T10:35:18.351Z,14.87
2019-05-11T10:40:20.976Z,13.53
2019-05-11T10:45:23.091Z,15.30
2019-05-11T10:50:25.218Z,14.87
2019-05-11T10:55:28.023Z,16.33
2019-05-11T11:00:30.585Z,15.93
2019-05-11T11:05:32.858Z,17.40
2019-05-11T11:10:35.180Z,16.90
2019-05-11T11:15:38.071Z,15.37
2019-05-11T11:20:40.343Z,16.27
2019-05-11T11:25:42.543Z,21.10
2019-05-11T11:30:44.643Z,29.13
2019-05-11T11:35:47.728Z,34.17
2019-05-11T11:40:50.031Z,50.53
2019-05-11T11:45:52.027Z,15.13
2019-05-11T11:52:33.187Z,13.37
2019-05-11T11:57:37.806Z,8.27
2019-05-11T12:02:39.614Z,18.47
2019-05-11T12:07:41.747Z,17.00
2019-05-11T12:12:43.822Z,19.23
2019-05-11T12:17:48.078Z,11.03
2019-05-11T12:22:50.064Z,13.33
2019-05-11T12:27:53.507Z,17.33
2019-05-11T12:32:57.572Z,9.47
2019-05-11T12:38:08.612Z,16.70
2019-05-11T12:43:11.043Z,14.80
2019-05-11T12:48:14.349Z,13.97
2019-05-11T12:53:18.620Z,12.47
2019-05-11T12:58:20.909Z,22.00
2019-05-11T13:03:23.051Z,17.27
2019-05-11T13:08:25.049Z,17.87
2019-05-11T13:13:28.640Z,15.57
2019-05-11T13:18:35.785Z,16.33
2019-05-11T13:23:38.535Z,16.00
2019-05-11T13:28:40.550Z,7.70
2019-05-11T13:33:42.545Z,9.80
2019-05-11T13:38:44.534Z,11.17
2019-05-11T13:43:48.587Z,10.83
2019-05-11T13:48:50.918Z,8.27
2019-05-11T13:53:54.256Z,8.30
2019-05-11T13:59:06.531Z,20.57
2019-05-11T14:04:28.243Z,17.43
2019-05-11T14:09:30.338Z,6.63
2019-05-11T14:14:33.197Z,14.00
2019-05-11T14:19:38.275Z,17.80
2019-05-11T14:24:39.601Z,10.53
2019-05-11T14:29:41.606Z,8.03
2019-05-11T14:34:43.720Z,13.77
2019-05-11T14:39:48.185Z,10.03
2019-05-11T14:44:50.455Z,6.97
2019-05-11T14:49:52.424Z,9.20
2019-05-11T14:54:55.061Z,4.67
2019-05-11T14:59:58.611Z,12.77
2019-05-11T15:05:01.703Z,5.07
2019-05-11T15:10:11.395Z,6.90
2019-05-11T15:15:18.639Z,15.20
2019-05-11T15:20:20.910Z,9.20
2019-05-11T15:25:22.937Z,12.97
2019-05-11T15:30:25.243Z,4.80
2019-05-11T15:35:28.419Z,10.03
2019-05-11T15:40:30.921Z,9.93
2019-05-11T15:45:33.028Z,16.50
2019-05-11T15:50:35.022Z,14.07
2019-05-11T15:55:40.370Z,19.10
2019-05-11T16:00:41.139Z,15.73
2019-05-11T16:05:43.348Z,14.33
2019-05-11T16:10:48.930Z,8.80
2019-05-11T16:15:51.019Z,11.57
2019-05-11T16:20:53.078Z,14.10
2019-05-11T16:25:55.181Z,13.37
2019-05-11T16:30:58.376Z,18.77
2019-05-11T16:36:00.826Z,14.30
2019-05-11T16:41:03.320Z,21.73
2019-05-11T16:46:08.471Z,8.63
2019-05-11T16:51:10.405Z,11.87
2019-05-11T16:56:12.425Z,12.33
2019-05-11T17:01:14.449Z,18.60
2019-05-11T17:06:16.465Z,19.43
2019-05-11T17:11:19.744Z,11.80
2019-05-11T17:16:21.900Z,17.07
2019-05-11T17:21:23.895Z,16.07
2019-05-11T17:26:27.883Z,20.80
2019-05-11T17:31:30.036Z,23.93
2019-05-11T17:36:32.042Z,32.07
2019-05-11T17:41:34.246Z,12.17
2019-05-11T17:46:38.517Z,5.33
2019-05-11T17:51:40.656Z,17.17
2019-05-11T17:56:42.936Z,19.40
2019-05-11T18:01:46.934Z,15.07
2019-05-11T18:06:49.036Z,8.73
2019-05-11T18:11:51.147Z,8.67
2019-05-11T18:16:53.441Z,5.70
2019-05-11T18:21:57.729Z,10.63
2019-05-11T18:27:00.549Z,10.83
2019-05-11T18:32:02.776Z,5.43
2019-05-11T18:37:08.579Z,15.80
2019-05-11T18:42:10.059Z,7.67
2019-05-11T18:47:12.247Z,8.67
2019-05-11T18:52:14.432Z,5.20
2019-05-11T18:57:18.613Z,11.57
2019-05-11T19:02:20.584Z,8.10
2019-05-11T19:07:23.180Z,11.20
2019-05-11T19:12:27.662Z,9.87
2019-05-11T19:17:29.443Z,13.57
2019-05-11T19:22:31.483Z,8.63
2019-05-11T19:27:33.585Z,16.77
2019-05-11T19:32:38.067Z,16.20
2019-05-11T19:37:39.898Z,13.13
2019-05-11T19:42:54.805Z,7.77
2019-05-11T19:47:57.853Z,17.10
2019-05-11T19:53:00.402Z,19.10
2019-05-11T19:58:02.834Z,18.27
2019-05-11T20:03:04.875Z,13.03
2019-05-11T20:08:07.922Z,20.93
2019-05-11T20:13:10.158Z,21.33
2019-05-11T20:18:12.325Z,12.27
2019-05-11T20:23:14.345Z,12.73
2019-05-11T20:28:18.306Z,12.80
2019-05-11T20:33:20.483Z,14.53
2019-05-11T20:38:22.570Z,13.70
2019-05-11T20:43:24.693Z,11.10
2019-05-11T20:48:27.706Z,7.57
2019-05-11T20:53:29.980Z,15.30
2019-05-11T20:58:51.873Z,12.03
2019-05-11T21:03:54.033Z,9.67
2019-05-11T21:08:56.018Z,12.47
2019-05-11T21:13:58.154Z,8.63
2019-05-11T21:19:00.214Z,6.70
2019-05-11T21:24:02.305Z,9.00
2019-05-11T21:29:04.545Z,14.07
2019-05-11T21:34:08.180Z,11.07
2019-05-11T21:39:10.566Z,13.20
2019-05-11T21:44:12.799Z,17.47
2019-05-11T21:49:14.786Z,13.90
2019-05-11T21:54:16.899Z,14.13
2019-05-11T22:09:12.345Z,8.83
2019-05-11T22:24:49.505Z,4.90
2019-05-11T22:29:51.503Z,5.70
2019-05-11T22:34:53.571Z,14.83
2019-05-11T22:39:59.681Z,6.53
2019-05-11T22:45:01.893Z,4.70
2019-05-11T22:50:05.017Z,9.90
2019-05-11T22:55:08.887Z,9.13
2019-05-11T23:00:12.560Z,6.40
2019-05-11T23:05:16.783Z,6.57
2019-05-11T23:10:19.022Z,6.37
2019-05-11T23:15:21.034Z,6.70
2019-05-11T23:20:23.262Z,6.60
2019-05-11T23:25:25.364Z,2.87
2019-05-11T23:30:29.387Z,3.00
2019-05-11T23:35:31.675Z,4.27
2019-05-11T23:40:33.891Z,4.07
2019-05-11T23:45:38.206Z,3.10
2019-05-11T23:50:40.205Z,3.30
2019-05-11T23:55:42.462Z,5.80
